Franklin Island, Australia

2:56 PM ACST on April 23, 2017 (GMT +0930)
Encounter Bay | | Change Station

Elev 50 ft 35.56 °S, 138.60 °E | Updated 12 seconds ago

Mostly Cloudy
Mostly Cloudy
67.8 °F
Feels Like 67.8 °F
N
1.3
Wind Variable Wind from South
Gusts 4.0 mph

Today
High -- | Low -- °F
--% Chance of Precip.
Yesterday
High -- | Low -- °F
Precip. -- in
Pressure 30.12 in
Visibility -9999.0 miles
Clouds
Dew Point 63 °F
Humidity 83%
Rainfall 0.00 in
Snow Depth Not available.
6:46 AM 5:41 PM
Waning Crescent, 14% visible
METAR YPAD 230500Z 22008KT CAVOK 22/14 Q1020 NOSIG
Pressure 30.12 in
Visibility -9999.0 miles
Clouds
Dew Point 63 °F
Humidity 83%
Rainfall 0.00 in
Snow Depth Not available.
6:46 AM 5:41 PM
Waning Crescent, 14% visible
METAR YPAD 230500Z 22008KT CAVOK 22/14 Q1020 NOSIG

Get Severe Weather Alerts

Thanks for signing up!

Be on the lookout for a verification email in your inbox.

You'll start receiving the daily forecast at 8 AM.

×

10-Day Weather Forecast

×

Almanac

Astronomy

Apr. 23, 2017 Rise Set
Actual Time
Civil Twilight
Nautical Twilight
Astronomical Twilight
Moon
Length of Visible Light
Length of Day
Tomorrow will be .
, % of the Moon is Illuminated

Today's Extremes

Country Highs Country Lows

Community

WunderPhotos

WunderBlog® & News

Nearby

Air Quality

  Air Quality AQ Index Pollutant
Not available.

Snow Depth

Station Depth Elevation

Earthquake Activity

City Distance Mag. Time & Date
Minimum magnitude displayed is 2.5.

Coastal Water Temperatures

Place Temperature

Stations

Nearby Weather Stations

Station Location Temp. Windchill Dew Point Humidity Wind Precip. Elev Updated Type